createdAt,value
2023-04-05T00:00:40.234Z,2.09
2023-04-05T00:01:37.817Z,2.03
2023-04-05T00:02:37.020Z,2.24
2023-04-05T00:03:34.894Z,2.47
2023-04-05T00:04:34.647Z,1.93
2023-04-05T00:05:31.645Z,2.23
2023-04-05T00:06:29.691Z,2.39
2023-04-05T00:07:26.775Z,2.13
2023-04-05T00:08:24.105Z,2.34
2023-04-05T00:09:21.182Z,2.05
2023-04-05T00:10:17.891Z,1.83
2023-04-05T00:11:14.638Z,2.20
2023-04-05T00:12:12.050Z,2.17
2023-04-05T00:13:08.981Z,2.22
2023-04-05T00:14:05.932Z,2.46
2023-04-05T00:15:02.658Z,2.59
2023-04-05T00:16:01.317Z,2.69
2023-04-05T00:16:58.713Z,2.78
2023-04-05T00:17:55.995Z,2.48
2023-04-05T00:18:53.015Z,2.59
2023-04-05T00:19:57.226Z,2.57
2023-04-05T00:20:54.228Z,2.35
2023-04-05T00:21:54.538Z,2.36
2023-04-05T00:22:51.335Z,2.43
2023-04-05T00:23:54.429Z,2.73
2023-04-05T00:24:51.303Z,2.84
2023-04-05T00:25:48.335Z,2.67
2023-04-05T00:26:45.239Z,2.76
2023-04-05T00:27:43.999Z,2.70
2023-04-05T00:28:40.876Z,2.06
2023-04-05T00:29:37.891Z,2.24
2023-04-05T00:30:34.762Z,2.72
2023-04-05T00:31:31.552Z,2.30
2023-04-05T00:32:28.406Z,2.24
2023-04-05T00:33:25.375Z,2.00
2023-04-05T00:34:22.195Z,0.42
2023-04-05T00:35:20.610Z,2.55
2023-04-05T00:36:19.538Z,2.71
2023-04-05T00:37:16.508Z,2.30
2023-04-05T00:38:13.274Z,2.38
2023-04-05T00:39:10.063Z,1.91
2023-04-05T00:40:07.670Z,1.95
2023-04-05T00:41:04.443Z,2.22
2023-04-05T00:42:06.972Z,2.68
2023-04-05T00:43:03.865Z,2.70
2023-04-05T00:44:00.670Z,2.38
2023-04-05T00:44:57.483Z,2.61
2023-04-05T00:45:55.093Z,2.72
2023-04-05T00:46:52.227Z,2.61
2023-04-05T00:47:49.081Z,2.48
2023-04-05T00:48:47.246Z,2.38
2023-04-05T00:49:44.077Z,2.36
2023-04-05T00:50:41.607Z,2.41
2023-04-05T00:51:38.866Z,2.19
2023-04-05T00:52:38.453Z,1.11
2023-04-05T00:53:36.218Z,2.41
2023-04-05T00:54:33.553Z,2.20
2023-04-05T00:55:34.065Z,2.12
2023-04-05T00:56:31.147Z,2.14
2023-04-05T00:57:30.219Z,2.17
2023-04-05T00:58:27.344Z,2.35
2023-04-05T00:59:24.136Z,2.23
2023-04-05T01:00:21.612Z,1.95
2023-04-05T01:01:24.849Z,2.07
2023-04-05T01:02:32.369Z,2.34
2023-04-05T01:03:31.942Z,2.06
2023-04-05T01:04:32.983Z,2.48
2023-04-05T01:05:46.957Z,2.68
2023-04-05T01:07:04.307Z,2.65
2023-04-05T01:08:20.262Z,2.54
2023-04-05T01:09:30.769Z,2.22
2023-04-05T01:10:39.676Z,2.34
2023-04-05T01:11:40.460Z,2.41
2023-04-05T01:12:38.317Z,2.32
2023-04-05T01:13:35.340Z,1.96
2023-04-05T01:14:32.111Z,2.31
2023-04-05T01:15:28.932Z,2.27
2023-04-05T01:16:26.519Z,2.05
2023-04-05T01:17:28.492Z,2.16
2023-04-05T01:18:27.654Z,2.15
2023-04-05T01:19:29.687Z,2.36
2023-04-05T01:20:28.387Z,2.24
2023-04-05T01:21:48.563Z,2.21
2023-04-05T01:23:07.303Z,2.26
2023-04-05T01:24:29.002Z,2.25
2023-04-05T01:25:47.130Z,2.19
2023-04-05T01:27:05.912Z,2.33
2023-04-05T01:28:40.937Z,2.34
2023-04-05T01:30:04.345Z,2.21
2023-04-05T01:31:13.359Z,2.02
2023-04-05T01:32:34.663Z,1.90
2023-04-05T01:33:45.178Z,2.33
2023-04-05T01:35:01.740Z,2.33
2023-04-05T01:36:01.497Z,2.25
2023-04-05T01:37:05.933Z,1.84
2023-04-05T01:38:07.397Z,2.13
2023-04-05T01:39:08.438Z,2.43
2023-04-05T01:40:06.450Z,2.40
2023-04-05T01:41:03.243Z,2.51
2023-04-05T01:42:01.825Z,2.36
2023-04-05T01:43:02.493Z,2.19
2023-04-05T01:43:59.307Z,2.23
2023-04-05T01:44:58.436Z,1.67
2023-04-05T01:45:55.344Z,2.28
2023-04-05T01:46:52.221Z,2.31
2023-04-05T01:47:49.105Z,2.20
2023-04-05T01:48:45.925Z,1.71
2023-04-05T01:49:42.670Z,2.07
2023-04-05T01:50:40.058Z,1.93
2023-04-05T01:51:41.969Z,2.28
2023-04-05T01:52:38.735Z,1.94
2023-04-05T01:53:35.620Z,1.98
2023-04-05T01:54:32.480Z,1.81
2023-04-05T01:55:29.497Z,1.94
2023-04-05T01:56:27.537Z,1.97
2023-04-05T01:57:24.291Z,1.72
2023-04-05T01:58:21.120Z,1.92
2023-04-05T01:59:17.974Z,2.04
2023-04-05T02:00:14.905Z,2.07
2023-04-05T02:01:11.946Z,2.14
2023-04-05T02:02:08.817Z,2.20
2023-04-05T02:03:05.888Z,1.92
2023-04-05T02:04:02.718Z,2.11
2023-04-05T02:04:59.483Z,1.84
2023-04-05T02:05:56.557Z,1.57
2023-04-05T02:06:53.420Z,1.48
2023-04-05T02:07:50.297Z,1.50
2023-04-05T02:08:46.981Z,1.19
2023-04-05T02:09:43.814Z,1.81
2023-04-05T02:10:40.983Z,1.98
2023-04-05T02:11:38.080Z,1.61
2023-04-05T02:12:34.901Z,1.94
2023-04-05T02:13:31.709Z,1.94
2023-04-05T02:14:29.091Z,1.83
2023-04-05T02:15:25.828Z,1.83
2023-04-05T02:16:23.434Z,1.72
2023-04-05T02:17:21.862Z,1.92
2023-04-05T02:18:22.567Z,1.85
2023-04-05T02:19:23.063Z,1.74
2023-04-05T02:20:20.033Z,1.54
2023-04-05T02:21:17.097Z,2.15
2023-04-05T02:22:14.041Z,2.08
2023-04-05T02:23:10.957Z,2.16
2023-04-05T02:24:08.164Z,1.77
2023-04-05T02:25:05.200Z,1.97
2023-04-05T02:26:01.980Z,2.29
2023-04-05T02:26:58.737Z,2.12
2023-04-05T02:27:55.566Z,2.49
2023-04-05T02:28:52.319Z,2.39
2023-04-05T02:29:49.117Z,2.48
2023-04-05T02:30:45.955Z,2.35
2023-04-05T02:31:42.821Z,2.31
2023-04-05T02:32:42.761Z,1.89
2023-04-05T02:33:40.180Z,1.83
2023-04-05T02:34:38.572Z,2.38
2023-04-05T02:35:35.381Z,2.11
2023-04-05T02:36:32.158Z,2.30
2023-04-05T02:37:28.969Z,2.37
2023-04-05T02:38:25.974Z,1.60
2023-04-05T02:39:22.800Z,2.04
2023-04-05T02:40:20.025Z,2.06
2023-04-05T02:41:16.769Z,1.91
2023-04-05T02:42:13.613Z,2.05
2023-04-05T02:43:10.712Z,1.76
2023-04-05T02:44:07.496Z,2.01
2023-04-05T02:45:04.485Z,2.00
2023-04-05T02:46:01.336Z,2.63
2023-04-05T02:46:58.180Z,2.07
2023-04-05T02:47:55.674Z,2.54
2023-04-05T02:48:52.542Z,1.62
2023-04-05T02:49:49.506Z,1.41
2023-04-05T02:50:50.810Z,1.59
2023-04-05T02:51:47.645Z,2.07
2023-04-05T02:52:44.410Z,2.16
2023-04-05T02:53:41.211Z,2.22
2023-04-05T02:54:38.013Z,2.28
2023-04-05T02:55:34.762Z,2.23
2023-04-05T02:56:31.514Z,2.24
2023-04-05T02:57:28.363Z,2.53
2023-04-05T02:58:25.437Z,2.42
2023-04-05T02:59:22.636Z,2.15
2023-04-05T03:00:20.130Z,2.01
2023-04-05T03:01:17.978Z,2.39
2023-04-05T03:02:14.802Z,2.29
2023-04-05T03:03:11.698Z,2.43
2023-04-05T03:04:08.576Z,2.38
2023-04-05T03:05:07.757Z,2.13
2023-04-05T03:06:13.563Z,2.39
2023-04-05T03:07:10.812Z,2.14
2023-04-05T03:08:07.653Z,2.19
2023-04-05T03:09:04.801Z,2.05
2023-04-05T03:10:01.598Z,2.68
2023-04-05T03:10:58.330Z,2.11
2023-04-05T03:11:55.055Z,2.30
2023-04-05T03:12:51.899Z,2.26
2023-04-05T03:13:48.620Z,2.20
2023-04-05T03:14:46.218Z,2.13
2023-04-05T03:15:43.324Z,1.95
2023-04-05T03:16:40.488Z,2.33
2023-04-05T03:17:37.527Z,2.51
2023-04-05T03:18:34.378Z,2.55
2023-04-05T03:19:31.330Z,2.37
2023-04-05T03:20:28.135Z,2.35
2023-04-05T03:21:24.950Z,2.31
2023-04-05T03:22:22.130Z,2.53
2023-04-05T03:23:18.864Z,2.13
2023-04-05T03:24:17.007Z,2.18
2023-04-05T03:25:14.909Z,2.46
2023-04-05T03:26:11.646Z,2.67
2023-04-05T03:27:08.949Z,2.08
2023-04-05T03:28:06.304Z,2.14
2023-04-05T03:29:03.165Z,1.79
2023-04-05T03:30:00.259Z,2.35
2023-04-05T03:30:57.076Z,1.74
2023-04-05T03:31:54.075Z,2.21
2023-04-05T03:32:51.090Z,2.26
2023-04-05T03:33:47.923Z,1.33
2023-04-05T03:34:44.694Z,1.98
2023-04-05T03:35:41.776Z,2.01
2023-04-05T03:36:45.782Z,2.09
2023-04-05T03:37:42.495Z,1.98
2023-04-05T03:38:40.321Z,2.08
2023-04-05T03:39:38.956Z,1.74
2023-04-05T03:40:35.993Z,2.05
2023-04-05T03:41:32.713Z,1.85
2023-04-05T03:42:29.507Z,2.24
2023-04-05T03:43:27.824Z,2.38
2023-04-05T03:44:24.632Z,2.39
2023-04-05T03:45:24.294Z,2.36
2023-04-05T03:46:21.515Z,2.39
2023-04-05T03:47:18.558Z,1.72
2023-04-05T03:48:20.120Z,2.23
2023-04-05T03:49:16.866Z,2.40
2023-04-05T03:50:13.692Z,2.48
2023-04-05T03:51:10.919Z,2.25
2023-04-05T03:52:08.693Z,2.22
2023-04-05T03:53:05.398Z,2.60
2023-04-05T03:54:02.292Z,2.67
2023-04-05T03:54:59.066Z,2.42
2023-04-05T03:55:56.832Z,2.35
2023-04-05T03:56:53.635Z,2.30
2023-04-05T03:57:50.648Z,2.38
2023-04-05T03:58:47.678Z,2.30
2023-04-05T03:59:44.506Z,2.27
2023-04-05T04:00:41.244Z,2.35
2023-04-05T04:01:38.810Z,2.57
2023-04-05T04:02:35.728Z,2.34
2023-04-05T04:03:32.537Z,2.35
2023-04-05T04:04:29.773Z,2.52
2023-04-05T04:05:26.802Z,2.04
2023-04-05T04:06:26.819Z,2.41
2023-04-05T04:07:23.589Z,2.21
2023-04-05T04:08:20.438Z,2.58
2023-04-05T04:09:17.228Z,2.68
2023-04-05T04:10:17.789Z,2.97
2023-04-05T04:11:14.542Z,2.64
2023-04-05T04:12:11.442Z,2.96
2023-04-05T04:13:08.187Z,2.68
2023-04-05T04:14:04.914Z,2.28
2023-04-05T04:15:01.809Z,1.50
2023-04-05T04:15:58.945Z,2.59
2023-04-05T04:16:55.719Z,2.57
2023-04-05T04:17:52.538Z,2.84
2023-04-05T04:18:49.288Z,2.58
2023-04-05T04:19:46.150Z,2.77
2023-04-05T04:20:42.876Z,2.67
2023-04-05T04:21:39.629Z,2.46
2023-04-05T04:22:38.837Z,2.54
2023-04-05T04:23:38.599Z,2.25
2023-04-05T04:24:35.510Z,1.85
2023-04-05T04:25:32.645Z,2.07
2023-04-05T04:26:29.452Z,2.20
2023-04-05T04:27:26.143Z,2.16
2023-04-05T04:28:25.206Z,2.28
2023-04-05T04:29:31.108Z,2.06
2023-04-05T04:30:27.862Z,2.85
2023-04-05T04:31:24.857Z,2.94
2023-04-05T04:32:27.051Z,2.83
2023-04-05T04:33:24.218Z,2.64
2023-04-05T04:34:21.232Z,2.68
2023-04-05T04:35:20.946Z,2.43
2023-04-05T04:36:19.108Z,2.58
2023-04-05T04:37:22.882Z,2.49
2023-04-05T04:38:20.729Z,2.47
2023-04-05T04:39:17.629Z,2.39
2023-04-05T04:40:17.279Z,2.05
2023-04-05T04:41:14.572Z,1.75
2023-04-05T04:42:11.959Z,1.97
2023-04-05T04:43:14.385Z,2.05
2023-04-05T04:44:14.876Z,2.06
2023-04-05T04:45:12.677Z,2.00
2023-04-05T04:46:15.359Z,1.68
2023-04-05T04:47:17.538Z,2.08
2023-04-05T04:48:16.573Z,2.27
2023-04-05T04:49:13.420Z,2.12
2023-04-05T04:50:11.968Z,2.27
2023-04-05T04:51:08.956Z,2.05
2023-04-05T04:52:06.049Z,2.14
2023-04-05T04:53:02.882Z,2.41
2023-04-05T04:54:00.219Z,1.98
2023-04-05T04:54:57.004Z,2.42
2023-04-05T04:55:55.423Z,2.22
2023-04-05T04:56:52.221Z,1.98
2023-04-05T04:57:52.895Z,2.10
2023-04-05T04:58:49.669Z,2.55
2023-04-05T04:59:46.500Z,2.38
2023-04-05T05:00:44.630Z,1.70
2023-04-05T05:01:44.835Z,2.33
2023-04-05T05:02:44.177Z,2.31
2023-04-05T05:03:41.304Z,2.46
2023-04-05T05:04:38.307Z,1.82
2023-04-05T05:05:35.267Z,2.15
2023-04-05T05:06:32.027Z,2.14
2023-04-05T05:07:29.040Z,2.16
2023-04-05T05:08:26.098Z,2.09
2023-04-05T05:09:22.803Z,1.88
2023-04-05T05:10:20.694Z,1.88
2023-04-05T05:11:17.465Z,2.20
2023-04-05T05:12:14.338Z,2.22
2023-04-05T05:13:11.402Z,2.15
2023-04-05T05:14:08.199Z,1.67
2023-04-05T05:15:05.542Z,1.68
2023-04-05T05:16:04.517Z,1.44
2023-04-05T05:17:02.655Z,1.98
2023-04-05T05:17:59.644Z,2.03
2023-04-05T05:18:56.466Z,2.36
2023-04-05T05:19:55.746Z,2.46
2023-04-05T05:20:53.188Z,2.55
2023-04-05T05:21:50.470Z,2.58
2023-04-05T05:22:47.366Z,2.23
2023-04-05T05:23:44.102Z,2.51
2023-04-05T05:24:40.953Z,2.19
2023-04-05T05:25:38.731Z,2.12
2023-04-05T05:26:36.530Z,2.26
2023-04-05T05:27:36.431Z,2.67
2023-04-05T05:28:33.283Z,2.19
2023-04-05T05:29:49.007Z,2.39
2023-04-05T05:30:46.068Z,2.06
2023-04-05T05:31:42.904Z,2.57
2023-04-05T05:32:42.523Z,1.84
2023-04-05T05:33:39.448Z,1.96
2023-04-05T05:34:37.327Z,2.31
2023-04-05T05:35:34.877Z,2.92
2023-04-05T05:36:32.854Z,3.01
2023-04-05T05:37:31.691Z,2.81
2023-04-05T05:38:28.470Z,2.63
2023-04-05T05:39:25.517Z,2.30
2023-04-05T05:40:22.296Z,2.80
2023-04-05T05:41:19.059Z,2.89
2023-04-05T05:42:16.320Z,2.39
2023-04-05T05:43:13.392Z,3.00
2023-04-05T05:44:10.437Z,3.25
2023-04-05T05:45:08.200Z,3.20
2023-04-05T05:46:05.155Z,2.96
2023-04-05T05:47:02.612Z,2.66
2023-04-05T05:47:59.458Z,2.60
2023-04-05T05:48:56.813Z,2.72
2023-04-05T05:49:53.569Z,3.03
2023-04-05T05:50:50.726Z,2.82
2023-04-05T05:51:47.450Z,2.56
2023-04-05T05:52:44.306Z,2.52
2023-04-05T05:53:41.153Z,2.76
2023-04-05T05:54:37.945Z,2.89
2023-04-05T05:55:34.785Z,3.13
2023-04-05T05:56:31.499Z,2.82
2023-04-05T05:57:28.275Z,3.05
2023-04-05T05:58:25.083Z,2.38
2023-04-05T05:59:21.891Z,2.51
2023-04-05T06:00:20.295Z,2.97
2023-04-05T06:01:17.214Z,2.57
2023-04-05T06:02:14.163Z,2.57
2023-04-05T06:03:11.149Z,2.80
2023-04-05T06:04:08.500Z,2.19
2023-04-05T06:05:05.540Z,2.87
2023-04-05T06:06:05.884Z,3.03
2023-04-05T06:07:03.042Z,2.52
2023-04-05T06:07:59.978Z,1.71
2023-04-05T06:08:56.787Z,2.87
2023-04-05T06:09:53.802Z,3.12
2023-04-05T06:10:51.131Z,2.84
2023-04-05T06:11:55.757Z,2.86
2023-04-05T06:12:53.406Z,2.33
2023-04-05T06:13:55.202Z,3.01
2023-04-05T06:14:52.083Z,2.86
2023-04-05T06:15:49.061Z,2.81
2023-04-05T06:16:45.927Z,3.02
2023-04-05T06:17:42.854Z,3.24
2023-04-05T06:18:39.807Z,2.93
2023-04-05T06:19:36.623Z,2.84
2023-04-05T06:20:33.378Z,3.56
2023-04-05T06:21:30.165Z,3.30
2023-04-05T06:22:28.911Z,2.94
2023-04-05T06:23:25.738Z,2.99
2023-04-05T06:24:22.874Z,2.82
2023-04-05T06:25:19.800Z,3.38
2023-04-05T06:26:23.227Z,3.57
2023-04-05T06:27:19.964Z,2.94
2023-04-05T06:28:16.836Z,3.10
2023-04-05T06:29:13.753Z,2.54
2023-04-05T06:30:11.231Z,3.01
2023-04-05T06:31:09.417Z,3.00
2023-04-05T06:32:07.204Z,3.18
2023-04-05T06:33:12.929Z,3.12
2023-04-05T06:34:09.844Z,3.18
2023-04-05T06:35:07.429Z,3.40
2023-04-05T06:36:04.387Z,3.57
2023-04-05T06:37:01.226Z,3.05
2023-04-05T06:37:58.083Z,3.07
2023-04-05T06:38:54.991Z,3.39
2023-04-05T06:39:51.770Z,3.60
2023-04-05T06:40:48.588Z,3.36
2023-04-05T06:41:45.575Z,3.04
2023-04-05T06:42:42.370Z,4.03
2023-04-05T06:43:39.141Z,3.72
2023-04-05T06:44:36.009Z,2.72
2023-04-05T06:45:32.929Z,3.49
2023-04-05T06:46:29.965Z,3.91
2023-04-05T06:47:27.399Z,3.19
2023-04-05T06:48:24.280Z,3.22
2023-04-05T06:49:21.316Z,3.53
2023-04-05T06:50:18.086Z,3.70
2023-04-05T06:51:14.904Z,3.46
2023-04-05T06:52:11.646Z,3.61
2023-04-05T06:53:08.388Z,3.45
2023-04-05T06:54:05.380Z,3.02
2023-04-05T06:55:05.598Z,3.60
2023-04-05T06:56:03.071Z,3.40
2023-04-05T06:57:01.816Z,3.43
2023-04-05T06:57:58.843Z,3.44
2023-04-05T06:58:56.185Z,3.31
2023-04-05T06:59:54.465Z,3.33
2023-04-05T07:00:51.693Z,3.16
2023-04-05T07:01:48.523Z,3.19
2023-04-05T07:02:45.458Z,3.16
2023-04-05T07:03:44.496Z,3.76
2023-04-05T07:04:41.357Z,3.74
2023-04-05T07:05:40.972Z,4.02
2023-04-05T07:06:39.143Z,4.33
2023-04-05T07:07:40.635Z,3.62
2023-04-05T07:08:37.797Z,3.89
2023-04-05T07:09:38.270Z,3.53
2023-04-05T07:10:40.895Z,2.62
2023-04-05T07:11:39.972Z,3.38
2023-04-05T07:12:37.426Z,3.46
2023-04-05T07:13:34.287Z,3.65
2023-04-05T07:14:32.746Z,3.61
2023-04-05T07:15:29.542Z,3.48
2023-04-05T07:16:26.618Z,3.13
2023-04-05T07:17:23.508Z,3.13
2023-04-05T07:18:20.573Z,3.67
2023-04-05T07:19:17.352Z,3.67
2023-04-05T07:20:14.366Z,3.39
2023-04-05T07:21:11.780Z,3.48
2023-04-05T07:22:08.531Z,3.22
2023-04-05T07:23:08.102Z,3.02
2023-04-05T07:24:06.501Z,3.53
2023-04-05T07:25:03.511Z,3.68
2023-04-05T07:26:08.479Z,3.78
2023-04-05T07:27:05.315Z,3.66
2023-04-05T07:28:02.195Z,3.66
2023-04-05T07:28:58.946Z,3.31
2023-04-05T07:29:56.248Z,3.05
2023-04-05T07:30:53.047Z,4.14
2023-04-05T07:31:50.012Z,3.71
2023-04-05T07:32:46.952Z,3.85
2023-04-05T07:33:43.821Z,3.25
2023-04-05T07:34:41.600Z,3.68
2023-04-05T07:35:38.564Z,3.48
2023-04-05T07:36:37.143Z,3.88
2023-04-05T07:37:34.196Z,3.90
2023-04-05T07:38:31.040Z,3.71
2023-04-05T07:39:28.149Z,3.95
2023-04-05T07:40:25.047Z,3.85
2023-04-05T07:41:23.688Z,3.88
2023-04-05T07:42:21.592Z,4.08
2023-04-05T07:43:19.684Z,3.84
2023-04-05T07:44:16.527Z,4.01
2023-04-05T07:45:13.351Z,4.42
2023-04-05T07:46:10.463Z,4.12
2023-04-05T07:47:07.334Z,3.87
2023-04-05T07:48:04.311Z,3.94
2023-04-05T07:49:01.154Z,4.09
2023-04-05T07:49:57.916Z,3.92
2023-04-05T07:50:54.665Z,3.48
2023-04-05T07:51:55.043Z,3.42
2023-04-05T07:52:51.776Z,4.06
2023-04-05T07:53:48.985Z,3.95
2023-04-05T07:54:46.025Z,4.17
2023-04-05T07:55:43.261Z,3.72
2023-04-05T07:56:40.099Z,3.57
2023-04-05T07:57:37.621Z,4.08
2023-04-05T07:58:35.330Z,4.19
2023-04-05T07:59:32.134Z,4.06
2023-04-05T08:00:28.925Z,4.05
2023-04-05T08:01:28.515Z,4.21
2023-04-05T08:02:25.596Z,3.86
2023-04-05T08:03:22.690Z,3.83
2023-04-05T08:04:20.525Z,3.62
2023-04-05T08:05:17.468Z,3.62
2023-04-05T08:06:19.028Z,3.57
2023-04-05T08:07:15.878Z,3.95
2023-04-05T08:08:12.684Z,4.37
2023-04-05T08:09:11.199Z,4.27
2023-04-05T08:10:08.168Z,3.95
2023-04-05T08:11:05.040Z,4.10
2023-04-05T08:12:02.855Z,4.45
2023-04-05T08:12:59.680Z,4.56
2023-04-05T08:13:56.560Z,3.96
2023-04-05T08:14:53.488Z,4.06
2023-04-05T08:15:50.314Z,4.10
2023-04-05T08:16:47.121Z,4.04
2023-04-05T08:17:43.956Z,2.94
2023-04-05T08:18:40.867Z,3.62
2023-04-05T08:19:37.705Z,3.53
2023-04-05T08:20:39.472Z,3.93
2023-04-05T08:21:36.844Z,3.92
2023-04-05T08:22:33.712Z,4.08
2023-04-05T08:23:31.268Z,3.26
2023-04-05T08:24:28.112Z,4.05
2023-04-05T08:25:24.872Z,3.72
2023-04-05T08:26:21.665Z,3.50
2023-04-05T08:27:18.770Z,3.76
2023-04-05T08:28:15.639Z,3.75
2023-04-05T08:29:12.472Z,3.56
2023-04-05T08:30:10.259Z,3.81
2023-04-05T08:31:06.989Z,4.30
2023-04-05T08:32:04.237Z,4.40
2023-04-05T08:33:01.270Z,4.13
2023-04-05T08:33:58.291Z,4.18
2023-04-05T08:34:55.174Z,3.65
2023-04-05T08:35:52.566Z,3.53
2023-04-05T08:36:49.382Z,3.29
2023-04-05T08:37:47.593Z,3.50
2023-04-05T08:38:45.952Z,3.26
2023-04-05T08:39:42.766Z,3.54
2023-04-05T08:40:47.396Z,3.35
2023-04-05T08:41:57.264Z,3.31
2023-04-05T08:43:12.957Z,3.74
2023-04-05T08:44:10.873Z,3.70
2023-04-05T08:45:11.358Z,3.45
2023-04-05T08:46:10.018Z,3.58
2023-04-05T08:47:10.653Z,3.46
2023-04-05T08:48:07.516Z,3.71
2023-04-05T08:49:08.979Z,4.16
2023-04-05T08:50:06.486Z,3.76
2023-04-05T08:51:03.345Z,3.70
2023-04-05T08:52:01.604Z,3.41
2023-04-05T08:52:58.409Z,4.06
2023-04-05T08:53:55.450Z,4.14
2023-04-05T08:54:55.140Z,3.72
2023-04-05T08:55:56.549Z,3.44
2023-04-05T08:56:54.730Z,3.57
2023-04-05T08:57:59.125Z,3.95
2023-04-05T08:59:04.812Z,3.86
2023-04-05T09:00:03.738Z,4.07
2023-04-05T09:01:02.379Z,3.94
2023-04-05T09:02:01.660Z,4.32
2023-04-05T09:03:03.244Z,3.80
2023-04-05T09:04:05.472Z,4.37
2023-04-05T09:05:04.074Z,3.56
2023-04-05T09:06:01.426Z,3.87
2023-04-05T09:06:59.420Z,4.31
2023-04-05T09:07:58.531Z,4.22
2023-04-05T09:08:58.618Z,4.02
2023-04-05T09:09:59.404Z,3.83
2023-04-05T09:10:56.308Z,3.62
2023-04-05T09:11:53.251Z,3.70
2023-04-05T09:12:53.193Z,3.77
2023-04-05T09:13:50.114Z,3.59
2023-04-05T09:14:49.092Z,3.49
2023-04-05T09:15:46.884Z,3.31
2023-04-05T09:16:44.126Z,3.79
2023-04-05T09:17:43.357Z,3.64
2023-04-05T09:18:40.230Z,3.15
2023-04-05T09:19:37.241Z,3.41
2023-04-05T09:20:34.034Z,3.77
2023-04-05T09:21:30.985Z,3.32
2023-04-05T09:22:27.769Z,3.93
2023-04-05T09:23:24.555Z,3.42
2023-04-05T09:24:42.223Z,3.46
2023-04-05T09:25:40.605Z,3.50
2023-04-05T09:26:38.246Z,3.69
2023-04-05T09:27:35.165Z,3.87
2023-04-05T09:28:43.155Z,3.91
2023-04-05T09:29:42.978Z,3.28
2023-04-05T09:30:47.204Z,3.50
2023-04-05T09:31:45.272Z,3.48
2023-04-05T09:32:48.017Z,4.03
2023-04-05T09:33:46.504Z,4.25
2023-04-05T09:34:44.120Z,3.97
2023-04-05T09:35:41.066Z,4.04
2023-04-05T09:36:45.259Z,4.30
2023-04-05T09:37:54.518Z,4.01
2023-04-05T09:38:51.361Z,3.52
2023-04-05T09:39:50.917Z,4.00
2023-04-05T09:40:49.324Z,3.85
2023-04-05T09:42:05.918Z,4.07
2023-04-05T09:43:02.771Z,3.89
2023-04-05T09:43:59.975Z,3.90
2023-04-05T09:45:04.901Z,4.36
2023-04-05T09:46:01.721Z,4.07
2023-04-05T09:47:16.308Z,3.64
2023-04-05T09:48:13.784Z,3.90
2023-04-05T09:49:10.853Z,4.28
2023-04-05T09:50:16.534Z,4.27
2023-04-05T09:51:15.549Z,3.80
2023-04-05T09:52:20.025Z,3.64
2023-04-05T09:53:18.810Z,3.70
2023-04-05T09:54:16.549Z,3.48
2023-04-05T09:55:13.799Z,3.51
2023-04-05T09:56:13.380Z,3.62
2023-04-05T09:57:10.535Z,3.62
2023-04-05T09:58:12.216Z,4.05
2023-04-05T09:59:11.434Z,4.22
2023-04-05T10:00:19.472Z,4.15
2023-04-05T10:01:17.436Z,3.68
2023-04-05T10:02:16.084Z,3.97
2023-04-05T10:03:13.097Z,3.89
2023-04-05T10:04:10.182Z,2.99
2023-04-05T10:05:13.895Z,3.58
2023-04-05T10:06:10.939Z,3.57
2023-04-05T10:07:11.585Z,4.17
2023-04-05T10:08:08.634Z,4.06
2023-04-05T10:09:07.201Z,3.49
2023-04-05T10:10:04.788Z,4.12
2023-04-05T10:11:05.788Z,4.21
2023-04-05T10:12:04.347Z,3.89
2023-04-05T10:13:05.854Z,4.25
2023-04-05T10:14:06.210Z,4.06
2023-04-05T10:15:03.093Z,3.63
2023-04-05T10:16:03.315Z,3.97
2023-04-05T10:17:09.068Z,4.21
2023-04-05T10:18:25.677Z,4.05
2023-04-05T10:19:39.677Z,4.10
2023-04-05T10:20:41.565Z,3.61
2023-04-05T10:21:43.560Z,4.46
2023-04-05T10:22:43.086Z,4.49
2023-04-05T10:23:47.243Z,4.29
2023-04-05T10:24:55.636Z,4.42
2023-04-05T10:25:53.626Z,4.27
2023-04-05T10:27:23.589Z,3.83
2023-04-05T10:28:41.535Z,3.68
2023-04-05T10:29:54.126Z,3.62
2023-04-05T10:30:55.982Z,3.79
2023-04-05T10:32:04.265Z,4.21
2023-04-05T10:33:04.111Z,4.29
2023-04-05T10:34:10.969Z,4.43
2023-04-05T10:35:20.403Z,4.33
2023-04-05T10:36:45.562Z,4.50
2023-04-05T10:38:03.169Z,4.17
2023-04-05T10:39:33.918Z,4.17
2023-04-05T10:40:33.402Z,4.25
2023-04-05T10:41:35.910Z,4.77
2023-04-05T10:42:47.715Z,5.08
2023-04-05T10:43:46.438Z,4.40
2023-04-05T10:44:51.264Z,4.68
2023-04-05T10:45:52.103Z,5.28
2023-04-05T10:46:53.676Z,5.17
2023-04-05T10:47:58.029Z,4.92
2023-04-05T10:49:12.847Z,4.96
2023-04-05T10:50:17.683Z,4.55
2023-04-05T10:51:15.443Z,4.46
2023-04-05T10:52:12.598Z,4.01
2023-04-05T10:53:11.395Z,4.60
2023-04-05T10:54:10.463Z,3.94
2023-04-05T10:55:10.308Z,4.27
2023-04-05T10:56:08.811Z,4.15
2023-04-05T10:57:09.929Z,4.19
2023-04-05T10:58:07.908Z,4.39
2023-04-05T10:59:05.572Z,4.22
2023-04-05T11:00:03.053Z,4.38
2023-04-05T11:01:01.486Z,4.73
2023-04-05T11:01:59.887Z,3.97
2023-04-05T11:02:57.311Z,4.74
2023-04-05T11:03:55.060Z,4.88
2023-04-05T11:04:58.140Z,4.74
2023-04-05T11:06:33.491Z,5.12
2023-04-05T11:07:43.840Z,4.59
2023-04-05T11:08:43.976Z,4.86
2023-04-05T11:10:01.532Z,4.93
2023-04-05T11:10:58.412Z,5.31
2023-04-05T11:11:56.907Z,4.74
2023-04-05T11:12:53.763Z,5.12
2023-04-05T11:13:58.291Z,5.11
2023-04-05T11:15:30.357Z,5.19
2023-04-05T11:16:39.903Z,4.78
2023-04-05T11:17:36.733Z,4.91
2023-04-05T11:18:33.588Z,5.02
2023-04-05T11:20:02.289Z,4.63
2023-04-05T11:21:08.320Z,4.49
2023-04-05T11:22:05.571Z,4.42
2023-04-05T11:23:02.508Z,4.24
2023-04-05T11:24:11.977Z,4.62
2023-04-05T11:25:23.120Z,4.90
2023-04-05T11:26:20.271Z,5.15
2023-04-05T11:27:17.118Z,5.07
2023-04-05T11:28:24.957Z,4.96
2023-04-05T11:29:51.417Z,4.68
2023-04-05T11:30:51.993Z,4.67
2023-04-05T11:32:11.709Z,5.13
2023-04-05T11:33:11.290Z,5.62
2023-04-05T11:34:11.124Z,5.44
2023-04-05T11:35:23.282Z,5.02
2023-04-05T11:36:48.180Z,4.71
2023-04-05T11:38:00.678Z,3.21
2023-04-05T11:39:19.305Z,4.93
2023-04-05T11:40:28.386Z,5.38
2023-04-05T11:41:26.125Z,5.13
2023-04-05T11:42:23.361Z,5.28
2023-04-05T11:43:27.672Z,5.62
2023-04-05T11:44:25.113Z,5.39
2023-04-05T11:45:23.488Z,4.73
2023-04-05T11:46:21.460Z,5.24
2023-04-05T11:47:21.820Z,4.78
2023-04-05T11:48:18.847Z,5.31
2023-04-05T11:49:16.218Z,5.48
2023-04-05T11:50:13.440Z,5.68
2023-04-05T11:51:10.920Z,5.37
2023-04-05T11:52:16.069Z,5.48
2023-04-05T11:53:17.224Z,5.19
2023-04-05T11:54:14.365Z,4.69
2023-04-05T11:55:11.918Z,4.97
2023-04-05T11:56:12.931Z,4.77
2023-04-05T11:57:13.783Z,4.98
2023-04-05T11:58:19.225Z,4.69
2023-04-05T11:59:19.161Z,5.03
2023-04-05T12:00:16.590Z,4.64
2023-04-05T12:01:13.874Z,4.92
2023-04-05T12:02:10.797Z,4.80
2023-04-05T12:03:17.640Z,5.48
2023-04-05T12:04:16.688Z,5.08
2023-04-05T12:05:13.502Z,5.00
2023-04-05T12:06:10.337Z,4.83
2023-04-05T12:07:18.738Z,4.99
2023-04-05T12:08:16.103Z,5.16
2023-04-05T12:09:12.791Z,5.16
2023-04-05T12:10:13.987Z,4.39
2023-04-05T12:11:13.361Z,5.22
2023-04-05T12:12:17.242Z,5.39
2023-04-05T12:13:14.174Z,5.65
2023-04-05T12:14:10.965Z,5.44
2023-04-05T12:15:10.966Z,5.49
2023-04-05T12:16:09.508Z,5.39
2023-04-05T12:17:06.409Z,5.18
2023-04-05T12:18:03.715Z,4.84
2023-04-05T12:19:01.028Z,5.09
2023-04-05T12:19:57.930Z,4.17
2023-04-05T12:20:55.915Z,4.68
2023-04-05T12:21:52.821Z,5.23
2023-04-05T12:22:52.451Z,5.06
2023-04-05T12:23:50.644Z,4.90
2023-04-05T12:24:47.417Z,4.12
2023-04-05T12:25:49.035Z,4.77
2023-04-05T12:26:45.917Z,5.18
2023-04-05T12:27:43.897Z,4.47
2023-04-05T12:28:57.989Z,5.18
2023-04-05T12:30:07.022Z,4.68
2023-04-05T12:31:03.830Z,4.69
2023-04-05T12:32:01.406Z,4.62
2023-04-05T12:32:59.220Z,4.46
2023-04-05T12:33:59.501Z,5.06
2023-04-05T12:34:58.128Z,5.21
2023-04-05T12:35:55.406Z,5.48
2023-04-05T12:36:52.446Z,5.61
2023-04-05T12:37:52.077Z,5.16
2023-04-05T12:38:49.843Z,4.44
2023-04-05T12:39:47.116Z,5.16
2023-04-05T12:40:44.015Z,4.46
2023-04-05T12:41:41.937Z,4.72
2023-04-05T12:42:40.954Z,5.08
2023-04-05T12:43:42.157Z,4.89
2023-04-05T12:44:38.906Z,4.81
2023-04-05T12:45:43.231Z,4.81
2023-04-05T12:46:46.446Z,5.22
2023-04-05T12:48:00.680Z,4.77
2023-04-05T12:48:59.716Z,4.35
2023-04-05T12:49:56.434Z,4.25
2023-04-05T12:50:54.796Z,4.06
2023-04-05T12:51:51.548Z,3.90
2023-04-05T12:52:55.429Z,4.77
2023-04-05T12:53:52.182Z,4.98
2023-04-05T12:54:55.796Z,5.07
2023-04-05T12:55:56.851Z,4.45
2023-04-05T12:56:54.625Z,4.77
2023-04-05T12:58:02.206Z,4.63
2023-04-05T12:58:59.513Z,4.18
2023-04-05T12:59:56.402Z,4.31
2023-04-05T13:00:55.874Z,4.69
2023-04-05T13:01:53.384Z,5.04
2023-04-05T13:02:53.705Z,4.28
2023-04-05T13:03:54.931Z,4.21
2023-04-05T13:04:55.847Z,4.74
2023-04-05T13:05:52.741Z,3.99
2023-04-05T13:06:50.183Z,4.30
2023-04-05T13:07:47.298Z,4.83
2023-04-05T13:08:48.187Z,4.75
2023-04-05T13:09:45.283Z,5.33
2023-04-05T13:10:49.379Z,5.58
2023-04-05T13:11:46.190Z,5.33